Time;durP1;ratioP1;P1;durP2;ratioP2;P2;SDS_P1;SDS_P2;PMS_P1;PMS_P2;Temp;Humidity;BMP_temperature;BMP_pressure;BME280_temperature;BME280_humidity;BME280_pressure;Samples;Min_cycle;Max_cycle;Signal;HPM_P1;HPM_P2
2024/01/19 00:00:49;;;;;;;8.93;5.60;;;;;;;;;;5071173;28;20021;-58
2024/01/19 00:03:15;;;;;;;8.60;5.10;;;;;;;;;;5070685;28;20109;-56
2024/01/19 00:05:41;;;;;;;8.57;5.07;;;;;;;;;;5070665;28;20028;-55
2024/01/19 00:08:07;;;;;;;8.80;5.20;;;;;;;;;;5071130;28;20648;-56
2024/01/19 00:10:33;;;;;;;10.68;5.68;;;;;;;;;;5071125;28;20070;-56
2024/01/19 00:12:59;;;;;;;10.85;6.53;;;;;;;;;;5070390;28;20103;-50
2024/01/19 00:15:25;;;;;;;10.15;5.78;;;;;;;;;;5071017;28;20028;-54
2024/01/19 00:17:51;;;;;;;8.93;5.30;;;;;;;;;;5070968;28;20036;-55
2024/01/19 00:20:17;;;;;;;11.25;6.25;;;;;;;;;;5052993;28;20103;-56
2024/01/19 00:22:43;;;;;;;9.30;5.50;;;;;;;;;;5052241;28;20040;-56
2024/01/19 00:25:10;;;;;;;10.32;6.43;;;;;;;;;;5070723;28;20127;-53
2024/01/19 00:27:36;;;;;;;9.52;5.60;;;;;;;;;;5070793;28;20639;-55
2024/01/19 00:30:02;;;;;;;9.40;5.50;;;;;;;;;;5070911;28;20029;-55
2024/01/19 00:32:28;;;;;;;9.73;5.75;;;;;;;;;;5070102;28;20021;-57
2024/01/19 00:34:54;;;;;;;12.75;6.65;;;;;;;;;;5070621;28;20051;-57
2024/01/19 00:37:20;;;;;;;10.63;6.53;;;;;;;;;;5070573;28;20455;-59
2024/01/19 00:39:45;;;;;;;9.65;5.70;;;;;;;;;;5070722;28;20017;-59
2024/01/19 00:42:11;;;;;;;10.32;6.07;;;;;;;;;;5070483;28;20129;-58
2024/01/19 00:44:37;;;;;;;9.88;6.00;;;;;;;;;;5070834;28;20021;-60
2024/01/19 00:47:03;;;;;;;9.95;5.82;;;;;;;;;;5070503;28;20658;-60
2024/01/19 00:49:30;;;;;;;9.82;5.78;;;;;;;;;;5070786;28;20008;-58
2024/01/19 00:51:56;;;;;;;10.10;5.90;;;;;;;;;;5069950;28;20098;-59
2024/01/19 00:54:22;;;;;;;11.45;6.43;;;;;;;;;;5071038;28;20099;-58
2024/01/19 00:56:48;;;;;;;10.82;6.70;;;;;;;;;;5071045;28;20102;-56
2024/01/19 00:59:14;;;;;;;9.60;5.63;;;;;;;;;;5070794;28;20429;-59
2024/01/19 01:01:40;;;;;;;9.40;5.70;;;;;;;;;;5070122;28;20074;-58
2024/01/19 01:04:06;;;;;;;12.57;6.97;;;;;;;;;;5070974;28;20032;-57
2024/01/19 01:06:32;;;;;;;13.07;8.40;;;;;;;;;;5071021;28;20044;-58
2024/01/19 01:08:58;;;;;;;10.90;6.90;;;;;;;;;;5070654;28;20532;-56
2024/01/19 01:11:24;;;;;;;10.23;6.00;;;;;;;;;;5069631;28;20021;-56
2024/01/19 01:13:50;;;;;;;10.20;5.97;;;;;;;;;;5052827;28;20029;-58
2024/01/19 01:16:16;;;;;;;11.55;6.95;;;;;;;;;;5070804;28;20027;-58
2024/01/19 01:18:42;;;;;;;9.95;5.85;;;;;;;;;;5070959;28;20024;-59
2024/01/19 01:21:08;;;;;;;10.63;6.22;;;;;;;;;;5069750;28;20047;-59
2024/01/19 01:23:34;;;;;;;14.90;12.27;;;;;;;;;;5070720;28;20019;-58
2024/01/19 01:26:00;;;;;;;11.75;7.18;;;;;;;;;;5070226;28;20020;-57
2024/01/19 01:28:26;;;;;;;10.90;6.40;;;;;;;;;;5070580;28;20031;-58
2024/01/19 01:30:52;;;;;;;10.23;6.05;;;;;;;;;;5070065;28;20050;-54
2024/01/19 01:33:18;;;;;;;10.95;6.43;;;;;;;;;;5070115;28;20370;-59
2024/01/19 01:35:44;;;;;;;10.82;6.45;;;;;;;;;;5069478;28;20541;-57
2024/01/19 01:38:10;;;;;;;11.30;6.93;;;;;;;;;;5070181;28;20128;-56
2024/01/19 01:40:36;;;;;;;10.73;6.28;;;;;;;;;;5070245;28;20051;-58
2024/01/19 01:43:03;;;;;;;10.60;6.25;;;;;;;;;;5069579;28;20540;-55
2024/01/19 01:45:29;;;;;;;10.48;6.22;;;;;;;;;;5070555;28;20605;-59
2024/01/19 01:47:55;;;;;;;12.55;7.15;;;;;;;;;;5069967;28;20032;-57
2024/01/19 01:50:21;;;;;;;10.95;6.45;;;;;;;;;;5070178;28;20060;-56
2024/01/19 01:52:48;;;;;;;10.07;6.03;;;;;;;;;;5069574;28;20582;-55
2024/01/19 01:55:15;;;;;;;11.32;6.60;;;;;;;;;;5070073;28;20028;-58
2024/01/19 01:57:43;;;;;;;10.85;6.25;;;;;;;;;;5070140;28;20037;-58
2024/01/19 02:00:09;;;;;;;11.55;6.95;;;;;;;;;;5070057;28;20079;-54
2024/01/19 02:02:36;;;;;;;9.32;5.50;;;;;;;;;;5061060;28;20069;-58
2024/01/19 02:05:03;;;;;;;13.02;7.03;;;;;;;;;;5069946;28;20028;-56
2024/01/19 02:07:29;;;;;;;10.23;6.03;;;;;;;;;;5051901;28;20054;-58
2024/01/19 02:09:55;;;;;;;10.95;6.43;;;;;;;;;;5069786;28;20174;-57
2024/01/19 02:12:22;;;;;;;9.95;5.90;;;;;;;;;;5069455;28;20707;-57
2024/01/19 02:14:48;;;;;;;9.98;6.15;;;;;;;;;;5070372;28;20077;-56
2024/01/19 02:17:14;;;;;;;10.95;6.30;;;;;;;;;;5069839;28;20020;-59
2024/01/19 02:19:40;;;;;;;9.90;5.80;;;;;;;;;;5069980;28;20020;-56
2024/01/19 02:22:06;;;;;;;10.55;6.18;;;;;;;;;;5068613;28;20069;-57
2024/01/19 02:24:36;;;;;;;17.95;8.50;;;;;;;;;;5063917;28;20008;-58
2024/01/19 02:27:02;;;;;;;10.30;6.15;;;;;;;;;;5067381;28;20021;-58
2024/01/19 02:29:28;;;;;;;11.55;7.55;;;;;;;;;;5069296;28;20099;-59
2024/01/19 02:31:54;;;;;;;11.52;7.47;;;;;;;;;;5068700;28;20104;-59
2024/01/19 02:34:22;;;;;;;10.85;6.50;;;;;;;;;;5069471;28;20428;-58
2024/01/19 02:36:48;;;;;;;10.20;6.00;;;;;;;;;;5068247;28;20016;-57
2024/01/19 02:39:14;;;;;;;10.02;5.90;;;;;;;;;;5069105;28;20078;-58
2024/01/19 02:41:40;;;;;;;10.00;5.90;;;;;;;;;;5068182;28;20062;-57
2024/01/19 02:44:06;;;;;;;12.93;6.47;;;;;;;;;;5068974;28;20066;-58
2024/01/19 02:46:33;;;;;;;10.50;6.18;;;;;;;;;;5068761;28;20092;-59
2024/01/19 02:48:59;;;;;;;10.18;6.18;;;;;;;;;;5068895;28;20051;-57
2024/01/19 02:51:26;;;;;;;10.15;5.85;;;;;;;;;;5050318;28;20122;-58
2024/01/19 02:53:52;;;;;;;10.70;6.38;;;;;;;;;;5068775;28;20055;-56
2024/01/19 02:56:18;;;;;;;9.15;5.40;;;;;;;;;;5068734;28;20016;-51
2024/01/19 02:58:44;;;;;;;9.45;5.57;;;;;;;;;;5060584;28;20444;-56
2024/01/19 03:01:10;;;;;;;12.80;8.38;;;;;;;;;;5068126;28;20027;-53
2024/01/19 03:03:36;;;;;;;10.18;5.97;;;;;;;;;;5068659;28;20009;-54
2024/01/19 03:06:02;;;;;;;9.05;5.32;;;;;;;;;;5068416;28;20031;-57
2024/01/19 03:08:28;;;;;;;11.15;6.65;;;;;;;;;;5050754;28;20024;-56
2024/01/19 03:10:55;;;;;;;10.45;6.28;;;;;;;;;;5050409;28;20043;-56
2024/01/19 03:13:21;;;;;;;10.25;5.97;;;;;;;;;;5068241;28;20086;-56
2024/01/19 03:15:47;;;;;;;11.10;5.88;;;;;;;;;;5068665;28;20453;-56
2024/01/19 03:18:13;;;;;;;9.60;5.60;;;;;;;;;;5068502;28;20017;-57
2024/01/19 03:20:39;;;;;;;12.43;6.95;;;;;;;;;;5068613;28;20028;-58
2024/01/19 03:23:07;;;;;;;9.60;5.60;;;;;;;;;;5068076;28;20116;-55
2024/01/19 03:25:33;;;;;;;9.82;5.78;;;;;;;;;;5068811;28;20490;-56
2024/01/19 03:27:59;;;;;;;10.82;6.70;;;;;;;;;;5068255;28;20025;-58
2024/01/19 03:30:25;;;;;;;8.88;5.25;;;;;;;;;;5050335;28;20521;-58
2024/01/19 03:32:51;;;;;;;12.98;7.25;;;;;;;;;;5067053;28;20039;-58
2024/01/19 03:35:17;;;;;;;9.98;5.82;;;;;;;;;;5068304;28;20026;-57
2024/01/19 03:37:43;;;;;;;9.13;5.40;;;;;;;;;;5068212;28;20021;-56
2024/01/19 03:40:10;;;;;;;10.00;5.90;;;;;;;;;;5068173;28;20028;-55
2024/01/19 03:42:36;;;;;;;10.73;6.32;;;;;;;;;;5067338;28;20020;-57
2024/01/19 03:45:02;;;;;;;10.52;6.78;;;;;;;;;;5068025;28;20024;-58
2024/01/19 03:47:28;;;;;;;9.90;5.90;;;;;;;;;;5050303;28;20395;-58
2024/01/19 03:49:54;;;;;;;9.95;5.88;;;;;;;;;;5067763;28;20087;-55
2024/01/19 03:52:20;;;;;;;9.82;5.72;;;;;;;;;;5067330;28;20029;-57
2024/01/19 03:54:46;;;;;;;9.55;5.65;;;;;;;;;;5049917;28;20108;-57
2024/01/19 03:57:12;;;;;;;10.57;6.25;;;;;;;;;;5067619;28;20020;-58
2024/01/19 03:59:38;;;;;;;9.13;5.40;;;;;;;;;;5068118;28;20024;-59
2024/01/19 04:02:05;;;;;;;9.10;5.40;;;;;;;;;;5066993;28;20108;-56
2024/01/19 04:04:32;;;;;;;10.33;6.40;;;;;;;;;;5067914;28;20046;-59
2024/01/19 04:06:58;;;;;;;10.40;6.40;;;;;;;;;;5068076;28;20017;-55
2024/01/19 04:09:24;;;;;;;11.00;6.50;;;;;;;;;;5068058;28;20070;-56
2024/01/19 04:11:49;;;;;;;10.88;6.40;;;;;;;;;;5067321;28;20452;-60
2024/01/19 04:14:15;;;;;;;10.98;6.45;;;;;;;;;;5067948;28;20024;-57
2024/01/19 04:16:41;;;;;;;12.30;7.45;;;;;;;;;;5067917;28;20409;-57
2024/01/19 04:19:07;;;;;;;10.20;6.18;;;;;;;;;;5067769;28;20028;-58
2024/01/19 04:21:34;;;;;;;10.23;5.95;;;;;;;;;;5067071;28;20045;-57
2024/01/19 04:24:00;;;;;;;9.27;5.50;;;;;;;;;;5068036;28;20418;-58
2024/01/19 04:26:27;;;;;;;9.60;5.70;;;;;;;;;;5067888;28;20020;-56
2024/01/19 04:28:54;;;;;;;9.55;5.60;;;;;;;;;;5067970;28;20021;-57
2024/01/19 04:31:20;;;;;;;12.18;8.25;;;;;;;;;;5067206;28;20145;-56
2024/01/19 04:33:46;;;;;;;10.15;6.20;;;;;;;;;;5067837;28;20728;-54
2024/01/19 04:36:12;;;;;;;18.83;9.55;;;;;;;;;;5066929;28;20029;-52
2024/01/19 04:38:38;;;;;;;9.85;6.10;;;;;;;;;;5068039;28;20548;-54
2024/01/19 04:41:04;;;;;;;11.13;6.18;;;;;;;;;;5048899;28;20048;-55
2024/01/19 04:43:31;;;;;;;10.98;6.85;;;;;;;;;;5049843;28;20024;-54
2024/01/19 04:45:57;;;;;;;10.45;6.57;;;;;;;;;;5071094;28;20020;-57
2024/01/19 04:48:23;;;;;;;10.40;6.85;;;;;;;;;;5053494;28;20089;-55
2024/01/19 04:50:49;;;;;;;11.80;7.15;;;;;;;;;;5071487;28;20012;-56
2024/01/19 04:53:15;;;;;;;11.40;7.45;;;;;;;;;;5071157;28;20094;-55
2024/01/19 04:55:41;;;;;;;18.10;12.70;;;;;;;;;;5071803;28;20442;-52
2024/01/19 04:58:07;;;;;;;16.77;11.02;;;;;;;;;;5071438;28;20033;-57
2024/01/19 05:00:33;;;;;;;14.60;9.18;;;;;;;;;;5071942;28;20012;-58
2024/01/19 05:03:00;;;;;;;25.13;14.43;;;;;;;;;;5070821;28;20420;-56
2024/01/19 05:05:26;;;;;;;9.93;6.38;;;;;;;;;;5071287;28;20020;-57
2024/01/19 05:07:53;;;;;;;11.13;6.30;;;;;;;;;;5070732;28;20479;-58
2024/01/19 05:10:19;;;;;;;22.35;13.70;;;;;;;;;;5070809;28;20048;-58
2024/01/19 05:12:45;;;;;;;10.75;6.28;;;;;;;;;;5070271;28;20059;-58
2024/01/19 05:15:11;;;;;;;10.27;6.80;;;;;;;;;;5070665;28;20029;-57
2024/01/19 05:17:37;;;;;;;11.98;7.57;;;;;;;;;;5070596;28;20032;-56
2024/01/19 05:20:03;;;;;;;16.15;9.82;;;;;;;;;;5070611;28;20032;-58
2024/01/19 05:22:29;;;;;;;9.85;6.10;;;;;;;;;;5069798;28;20046;-56
2024/01/19 05:24:55;;;;;;;14.77;9.43;;;;;;;;;;5070533;28;20443;-55
2024/01/19 05:27:21;;;;;;;13.77;8.68;;;;;;;;;;5062185;28;20023;-58
2024/01/19 05:29:47;;;;;;;10.32;6.80;;;;;;;;;;5070713;28;20013;-55
2024/01/19 05:32:13;;;;;;;18.40;11.07;;;;;;;;;;5069869;28;20489;-57
2024/01/19 05:34:39;;;;;;;15.85;11.50;;;;;;;;;;5070760;28;20036;-53
2024/01/19 05:37:05;;;;;;;9.70;5.75;;;;;;;;;;5051382;28;20024;-57
2024/01/19 05:39:31;;;;;;;10.48;6.20;;;;;;;;;;5070442;28;20060;-59
2024/01/19 05:41:57;;;;;;;13.15;8.80;;;;;;;;;;5069290;28;20446;-57
2024/01/19 05:44:23;;;;;;;13.93;8.55;;;;;;;;;;5070311;28;20048;-56
2024/01/19 05:46:49;;;;;;;22.92;12.98;;;;;;;;;;5069950;28;20104;-56
2024/01/19 05:49:15;;;;;;;21.25;11.25;;;;;;;;;;5070234;28;20020;-57
2024/01/19 05:51:43;;;;;;;19.75;12.05;;;;;;;;;;5069296;28;20020;-57
2024/01/19 05:54:09;;;;;;;9.65;5.70;;;;;;;;;;5070121;28;20526;-58
2024/01/19 05:56:35;;;;;;;23.33;12.68;;;;;;;;;;5069364;28;20150;-55
2024/01/19 05:59:01;;;;;;;19.15;13.50;;;;;;;;;;5069892;28;20086;-57
2024/01/19 06:01:27;;;;;;;19.65;13.77;;;;;;;;;;5068937;28;20108;-58
2024/01/19 06:03:53;;;;;;;17.05;7.40;;;;;;;;;;5069496;28;20117;-58
2024/01/19 06:06:19;;;;;;;12.43;7.60;;;;;;;;;;5069223;28;20020;-59
2024/01/19 06:08:45;;;;;;;13.50;11.05;;;;;;;;;;5069521;28;20016;-57
2024/01/19 06:11:11;;;;;;;12.77;7.15;;;;;;;;;;5068512;28;20036;-58
2024/01/19 06:13:40;;;;;;;16.42;8.35;;;;;;;;;;5069461;28;20017;-59
2024/01/19 06:16:06;;;;;;;11.68;6.85;;;;;;;;;;5068913;28;20025;-57
2024/01/19 06:18:34;;;;;;;16.45;10.05;;;;;;;;;;5051337;28;20029;-60
2024/01/19 06:21:00;;;;;;;11.60;7.80;;;;;;;;;;5068967;28;20141;-58
2024/01/19 06:23:26;;;;;;;11.25;7.60;;;;;;;;;;5068269;28;20368;-56
2024/01/19 06:25:52;;;;;;;16.92;10.13;;;;;;;;;;5050681;28;20020;-59
2024/01/19 06:28:18;;;;;;;20.55;13.73;;;;;;;;;;5068712;28;20028;-57
2024/01/19 06:30:45;;;;;;;13.63;9.00;;;;;;;;;;5060546;28;20025;-54
2024/01/19 06:33:11;;;;;;;16.38;8.70;;;;;;;;;;5068478;28;20021;-58
2024/01/19 06:35:37;;;;;;;12.50;9.02;;;;;;;;;;5051002;28;20381;-58
2024/01/19 06:38:04;;;;;;;14.02;9.55;;;;;;;;;;5068628;28;20070;-55
2024/01/19 06:40:30;;;;;;;14.02;7.20;;;;;;;;;;5050818;28;20127;-56
2024/01/19 06:42:56;;;;;;;17.67;9.80;;;;;;;;;;5068509;28;20020;-56
2024/01/19 06:45:23;;;;;;;10.48;6.68;;;;;;;;;;5068777;28;20019;-58
2024/01/19 06:47:49;;;;;;;25.52;12.90;;;;;;;;;;5068644;28;20028;-59
2024/01/19 06:50:15;;;;;;;13.75;7.78;;;;;;;;;;5068732;28;20023;-57
2024/01/19 06:52:41;;;;;;;17.45;8.88;;;;;;;;;;5068026;28;20024;-58
2024/01/19 06:55:07;;;;;;;22.20;11.57;;;;;;;;;;5068829;28;20032;-56
2024/01/19 06:57:33;;;;;;;17.60;10.38;;;;;;;;;;5068654;28;20048;-56
2024/01/19 06:59:59;;;;;;;24.42;10.77;;;;;;;;;;5068770;28;20407;-56
2024/01/19 07:02:25;;;;;;;9.80;6.60;;;;;;;;;;5068039;28;20031;-56
2024/01/19 07:04:51;;;;;;;18.98;10.30;;;;;;;;;;5050954;28;20016;-56
2024/01/19 07:07:17;;;;;;;16.23;11.63;;;;;;;;;;5067675;28;20068;-57
2024/01/19 07:09:43;;;;;;;20.70;13.52;;;;;;;;;;5068615;28;20021;-59
2024/01/19 07:12:09;;;;;;;16.38;9.93;;;;;;;;;;5067911;28;20021;-57
2024/01/19 07:14:35;;;;;;;11.85;6.43;;;;;;;;;;5068782;28;20469;-58
2024/01/19 07:17:01;;;;;;;15.35;8.85;;;;;;;;;;5050299;28;20511;-58
2024/01/19 07:19:27;;;;;;;14.45;9.48;;;;;;;;;;5050561;28;20052;-59
2024/01/19 07:21:53;;;;;;;13.55;7.47;;;;;;;;;;5049429;28;20413;-57
2024/01/19 07:24:21;;;;;;;26.73;13.82;;;;;;;;;;5050648;28;20005;-55
2024/01/19 07:26:47;;;;;;;27.92;16.40;;;;;;;;;;5068359;28;20068;-56
2024/01/19 07:29:13;;;;;;;11.35;7.68;;;;;;;;;;5050033;28;20490;-52
2024/01/19 07:31:39;;;;;;;9.98;6.53;;;;;;;;;;5067471;28;20052;-58
2024/01/19 07:34:05;;;;;;;18.23;10.85;;;;;;;;;;5068404;28;20103;-58
2024/01/19 07:36:31;;;;;;;10.38;6.75;;;;;;;;;;5068287;28;20101;-57
2024/01/19 07:38:57;;;;;;;19.08;7.82;;;;;;;;;;5068551;28;20212;-59
2024/01/19 07:41:23;;;;;;;10.65;6.55;;;;;;;;;;5067527;28;20486;-54
2024/01/19 07:43:49;;;;;;;18.17;9.65;;;;;;;;;;5068153;28;20024;-57
2024/01/19 07:46:15;;;;;;;28.70;16.10;;;;;;;;;;5068248;28;20598;-58
2024/01/19 07:48:42;;;;;;;12.60;8.50;;;;;;;;;;5068104;28;20087;-58
2024/01/19 07:51:08;;;;;;;14.95;9.50;;;;;;;;;;5067603;28;20101;-57
2024/01/19 07:53:34;;;;;;;12.10;7.13;;;;;;;;;;5068154;28;20532;-57
2024/01/19 07:56:00;;;;;;;16.48;10.25;;;;;;;;;;5067920;28;20056;-55
2024/01/19 07:58:27;;;;;;;9.65;5.78;;;;;;;;;;5068024;28;20078;-58
2024/01/19 08:00:53;;;;;;;8.68;5.15;;;;;;;;;;5067829;28;20035;-59
2024/01/19 08:03:19;;;;;;;12.18;7.75;;;;;;;;;;5068437;28;20115;-58
2024/01/19 08:05:45;;;;;;;9.70;5.82;;;;;;;;;;5068329;28;20029;-56
2024/01/19 08:08:12;;;;;;;20.67;10.93;;;;;;;;;;5067918;28;20032;-58
2024/01/19 08:10:38;;;;;;;11.88;6.68;;;;;;;;;;5067807;28;20032;-54
2024/01/19 08:13:04;;;;;;;9.40;5.40;;;;;;;;;;5067332;28;20029;-55
2024/01/19 08:15:30;;;;;;;15.25;10.88;;;;;;;;;;5067543;28;20142;-57
2024/01/19 08:17:56;;;;;;;13.77;8.02;;;;;;;;;;5067549;28;20113;-57
2024/01/19 08:20:22;;;;;;;12.88;8.02;;;;;;;;;;5052650;28;20178;-58
2024/01/19 08:22:48;;;;;;;17.48;10.27;;;;;;;;;;5070660;28;20021;-58
2024/01/19 08:25:14;;;;;;;11.20;7.90;;;;;;;;;;5071165;28;20024;-55
2024/01/19 08:27:41;;;;;;;9.50;5.82;;;;;;;;;;5071399;28;20013;-58
2024/01/19 08:30:08;;;;;;;10.27;5.68;;;;;;;;;;5071238;28;20457;-58
2024/01/19 08:32:35;;;;;;;22.48;11.15;;;;;;;;;;5070795;28;20017;-56
2024/01/19 08:35:08;;;;;;;24.45;13.52;;;;;;;;;;5071308;28;20028;-56
2024/01/19 08:37:34;;;;;;;12.13;6.53;;;;;;;;;;5071396;28;20017;-55
2024/01/19 08:40:00;;;;;;;11.15;6.88;;;;;;;;;;5071269;28;20444;-54
2024/01/19 08:42:26;;;;;;;20.13;12.15;;;;;;;;;;5070440;28;20473;-57
2024/01/19 08:44:52;;;;;;;17.85;9.82;;;;;;;;;;5071082;28;20059;-57
2024/01/19 08:47:18;;;;;;;8.68;4.80;;;;;;;;;;5070963;28;20052;-61
2024/01/19 08:49:44;;;;;;;13.40;7.82;;;;;;;;;;5069000;28;20021;-56
2024/01/19 08:52:10;;;;;;;9.75;5.70;;;;;;;;;;5049248;28;20030;-59
2024/01/19 08:54:36;;;;;;;8.45;5.00;;;;;;;;;;5064918;28;20476;-56
2024/01/19 08:57:02;;;;;;;8.85;5.28;;;;;;;;;;5070398;28;20064;-56
2024/01/19 08:59:28;;;;;;;11.88;6.00;;;;;;;;;;5066613;28;20078;-57
2024/01/19 09:01:55;;;;;;;14.52;8.35;;;;;;;;;;5069779;28;20032;-51
2024/01/19 09:04:21;;;;;;;14.98;9.98;;;;;;;;;;5070598;28;20017;-46
2024/01/19 09:06:47;;;;;;;11.85;7.65;;;;;;;;;;5070556;28;20020;-46
2024/01/19 09:09:13;;;;;;;16.27;8.20;;;;;;;;;;5070474;28;20036;-45
2024/01/19 09:11:39;;;;;;;19.90;10.98;;;;;;;;;;5069824;28;20036;-50
2024/01/19 09:14:09;;;;;;;10.98;6.15;;;;;;;;;;5070552;28;20025;-47
2024/01/19 09:16:35;;;;;;;11.50;9.05;;;;;;;;;;5070570;28;20028;-51
2024/01/19 09:19:01;;;;;;;13.15;6.60;;;;;;;;;;5070527;28;20502;-46
2024/01/19 09:21:27;;;;;;;11.65;6.88;;;;;;;;;;5069774;28;20025;-47
2024/01/19 09:23:53;;;;;;;11.38;7.25;;;;;;;;;;5063521;28;20453;-45
2024/01/19 09:26:22;;;;;;;8.60;5.10;;;;;;;;;;5070300;28;20103;-50
2024/01/19 09:28:48;;;;;;;9.95;6.15;;;;;;;;;;5070514;28;20474;-45
2024/01/19 09:31:14;;;;;;;17.83;11.38;;;;;;;;;;5068556;28;20024;-56
2024/01/19 09:33:41;;;;;;;34.70;16.27;;;;;;;;;;5070172;28;20023;-56
2024/01/19 09:36:07;;;;;;;18.52;6.93;;;;;;;;;;5069748;28;20028;-57
2024/01/19 09:38:37;;;;;;;22.92;10.57;;;;;;;;;;5070243;28;20024;-57
2024/01/19 09:41:09;;;;;;;28.67;12.02;;;;;;;;;;5051050;28;20127;-58
2024/01/19 09:43:36;;;;;;;12.63;6.57;;;;;;;;;;5069591;28;20024;-56
2024/01/19 09:46:06;;;;;;;13.65;7.47;;;;;;;;;;5069695;28;20048;-54
2024/01/19 09:48:36;;;;;;;8.05;4.80;;;;;;;;;;5069941;28;20028;-59
2024/01/19 09:51:06;;;;;;;23.83;13.25;;;;;;;;;;5069381;28;20128;-54
2024/01/19 09:53:36;;;;;;;11.13;8.13;;;;;;;;;;5069812;28;20035;-58
2024/01/19 09:56:02;;;;;;;34.13;18.48;;;;;;;;;;5069225;28;20078;-55
2024/01/19 09:58:28;;;;;;;12.18;6.88;;;;;;;;;;5069464;28;20025;-53
2024/01/19 10:00:54;;;;;;;13.68;7.28;;;;;;;;;;5069335;28;20628;-57
2024/01/19 10:03:22;;;;;;;9.75;6.00;;;;;;;;;;5069124;28;20039;-57
2024/01/19 10:05:51;;;;;;;12.07;8.57;;;;;;;;;;5069365;28;20084;-57
2024/01/19 10:08:17;;;;;;;10.43;5.95;;;;;;;;;;5069265;28;20009;-56
2024/01/19 10:10:43;;;;;;;14.48;10.15;;;;;;;;;;5069320;28;20031;-54
2024/01/19 10:13:12;;;;;;;7.40;4.40;;;;;;;;;;5066562;28;20028;-57
2024/01/19 10:15:38;;;;;;;8.60;5.07;;;;;;;;;;5064560;28;20501;-56
2024/01/19 10:18:05;;;;;;;11.65;5.38;;;;;;;;;;5069634;28;20507;-56
2024/01/19 10:20:32;;;;;;;8.88;5.15;;;;;;;;;;5069482;28;20034;-56
2024/01/19 10:23:18;;;;;;;10.82;6.65;;;;;;;;;;5068877;28;20032;-54
2024/01/19 10:25:44;;;;;;;9.55;5.75;;;;;;;;;;5051431;28;20031;-55
2024/01/19 10:28:11;;;;;;;10.35;6.65;;;;;;;;;;5069141;28;20040;-57
2024/01/19 10:30:37;;;;;;;13.10;7.53;;;;;;;;;;5068961;28;20040;-54
2024/01/19 10:33:05;;;;;;;10.57;6.38;;;;;;;;;;5068507;28;20027;-57
2024/01/19 10:35:31;;;;;;;13.35;8.40;;;;;;;;;;5069115;28;20032;-54
2024/01/19 10:38:06;;;;;;;8.35;5.03;;;;;;;;;;5069091;28;20032;-56
2024/01/19 10:40:35;;;;;;;10.52;6.47;;;;;;;;;;5069126;28;20024;-55
2024/01/19 10:43:03;;;;;;;8.90;5.30;;;;;;;;;;5050137;28;20071;-58
2024/01/19 10:45:30;;;;;;;11.00;6.53;;;;;;;;;;5069033;28;20097;-58
2024/01/19 10:47:57;;;;;;;11.52;7.78;;;;;;;;;;5068585;28;20588;-57
2024/01/19 10:50:26;;;;;;;11.48;6.70;;;;;;;;;;5068575;28;20082;-56
2024/01/19 10:52:53;;;;;;;10.50;6.05;;;;;;;;;;5067987;28;20052;-57
2024/01/19 10:55:23;;;;;;;12.57;7.88;;;;;;;;;;5068562;28;20021;-57
2024/01/19 10:57:50;;;;;;;11.43;6.72;;;;;;;;;;5068355;28;20021;-52
2024/01/19 11:00:20;;;;;;;11.18;6.45;;;;;;;;;;5068149;28;20071;-57
2024/01/19 11:02:48;;;;;;;13.70;8.07;;;;;;;;;;5067739;28;20022;-56
2024/01/19 11:05:14;;;;;;;15.15;8.40;;;;;;;;;;5068197;28;20055;-53
2024/01/19 11:07:40;;;;;;;11.73;6.95;;;;;;;;;;5068319;28;20017;-55
2024/01/19 11:10:06;;;;;;;12.23;6.47;;;;;;;;;;5068364;28;20095;-59
2024/01/19 11:12:35;;;;;;;10.73;7.18;;;;;;;;;;5067816;28;20073;-54
2024/01/19 11:15:01;;;;;;;10.48;6.30;;;;;;;;;;5050122;28;20024;-56
2024/01/19 11:17:28;;;;;;;12.30;8.07;;;;;;;;;;5068171;28;20467;-53
2024/01/19 11:19:54;;;;;;;10.40;6.22;;;;;;;;;;5059979;28;20033;-56
2024/01/19 11:22:20;;;;;;;8.32;4.90;;;;;;;;;;5067380;28;20509;-57
2024/01/19 11:24:47;;;;;;;9.20;5.40;;;;;;;;;;5067882;28;20028;-56
2024/01/19 11:27:21;;;;;;;9.13;5.63;;;;;;;;;;5068242;28;20099;-54
2024/01/19 11:29:49;;;;;;;11.20;7.05;;;;;;;;;;5068314;28;20340;-57
2024/01/19 11:32:15;;;;;;;9.50;5.60;;;;;;;;;;5068059;28;20054;-56
2024/01/19 11:34:41;;;;;;;11.43;7.28;;;;;;;;;;5050442;28;20176;-55
2024/01/19 11:37:08;;;;;;;13.73;8.20;;;;;;;;;;5068136;28;20371;-55
2024/01/19 11:39:39;;;;;;;13.30;8.02;;;;;;;;;;5067950;28;20043;-54
2024/01/19 11:42:05;;;;;;;11.63;7.45;;;;;;;;;;5067360;28;20027;-56
2024/01/19 11:44:45;;;;;;;11.23;6.82;;;;;;;;;;5068345;28;20531;-54
2024/01/19 11:47:31;;;;;;;10.70;6.20;;;;;;;;;;5068303;28;20474;-56
2024/01/19 11:49:57;;;;;;;10.63;6.32;;;;;;;;;;5054301;28;20036;-56
2024/01/19 11:52:23;;;;;;;15.63;8.80;;;;;;;;;;5067765;28;20025;-56
2024/01/19 11:54:49;;;;;;;9.00;5.30;;;;;;;;;;5070757;28;20395;-55
2024/01/19 11:57:18;;;;;;;11.23;6.57;;;;;;;;;;5072193;28;20058;-57
2024/01/19 11:59:45;;;;;;;11.35;6.13;;;;;;;;;;5072422;28;20035;-57
2024/01/19 12:02:33;;;;;;;11.95;6.85;;;;;;;;;;5071663;28;20032;-54
2024/01/19 12:05:03;;;;;;;12.00;7.55;;;;;;;;;;5072453;28;20406;-49
2024/01/19 12:07:29;;;;;;;9.80;5.97;;;;;;;;;;5071781;28;20069;-54
2024/01/19 12:10:08;;;;;;;11.50;7.15;;;;;;;;;;5072139;28;20028;-56
2024/01/19 12:12:35;;;;;;;13.48;8.38;;;;;;;;;;5070902;28;20052;-56
2024/01/19 12:15:01;;;;;;;9.68;5.70;;;;;;;;;;5071757;28;20074;-55
2024/01/19 12:17:28;;;;;;;10.32;6.35;;;;;;;;;;5071135;28;20405;-53
2024/01/19 12:19:55;;;;;;;10.98;6.90;;;;;;;;;;5071893;28;20056;-57
2024/01/19 12:22:21;;;;;;;15.60;8.57;;;;;;;;;;5070968;28;20362;-57
2024/01/19 12:24:47;;;;;;;13.18;8.30;;;;;;;;;;5052735;28;20016;-54
2024/01/19 12:27:17;;;;;;;15.15;9.13;;;;;;;;;;5071476;28;20024;-55
2024/01/19 12:29:43;;;;;;;12.02;7.47;;;;;;;;;;5071570;28;20021;-57
2024/01/19 12:32:13;;;;;;;11.73;6.82;;;;;;;;;;5053351;28;20358;-53
2024/01/19 12:34:39;;;;;;;13.75;8.50;;;;;;;;;;5072165;28;20029;-54
2024/01/19 12:37:05;;;;;;;11.43;6.53;;;;;;;;;;5071357;28;20032;-54
2024/01/19 12:39:31;;;;;;;10.10;6.05;;;;;;;;;;5071210;28;20047;-57
2024/01/19 12:44:29;;;;;;;11.75;7.47;;;;;;;;;;5051419;28;20048;-49
2024/01/19 12:46:58;;;;;;;10.48;7.05;;;;;;;;;;5034980;28;20025;-51
2024/01/19 12:49:24;;;;;;;14.35;8.60;;;;;;;;;;5052759;28;20017;-53
2024/01/19 12:51:50;;;;;;;10.48;6.38;;;;;;;;;;5033753;28;20083;-54
2024/01/19 12:54:18;;;;;;;9.55;5.60;;;;;;;;;;5048584;28;20025;-50
2024/01/19 12:56:44;;;;;;;11.93;7.17;;;;;;;;;;5026533;28;20025;-52
2024/01/19 12:59:16;;;;;;;14.25;7.80;;;;;;;;;;5051565;28;20033;-53
2024/01/19 13:01:43;;;;;;;12.65;7.05;;;;;;;;;;5051972;28;20021;-49
2024/01/19 13:04:09;;;;;;;11.63;6.78;;;;;;;;;;5050335;28;20116;-52
2024/01/19 13:06:44;;;;;;;10.23;6.00;;;;;;;;;;5043920;28;20124;-52
2024/01/19 13:09:11;;;;;;;15.60;8.98;;;;;;;;;;5033077;28;20044;-52
2024/01/19 13:11:37;;;;;;;10.18;6.10;;;;;;;;;;5051731;28;20013;-50
2024/01/19 13:14:04;;;;;;;12.07;6.78;;;;;;;;;;5035068;28;20032;-51
2024/01/19 13:16:30;;;;;;;15.60;9.20;;;;;;;;;;5053101;28;20028;-55
2024/01/19 13:19:02;;;;;;;10.45;6.50;;;;;;;;;;5046964;28;20029;-53
2024/01/19 13:21:31;;;;;;;14.40;8.55;;;;;;;;;;5043250;28;20062;-52
2024/01/19 13:23:57;;;;;;;11.38;6.82;;;;;;;;;;5049646;28;20020;-54
2024/01/19 13:26:24;;;;;;;16.83;11.07;;;;;;;;;;5044444;28;20031;-48
2024/01/19 13:28:51;;;;;;;15.57;10.23;;;;;;;;;;5053839;28;20538;-51
2024/01/19 13:31:17;;;;;;;17.67;10.07;;;;;;;;;;5052681;28;20049;-52
2024/01/19 13:33:44;;;;;;;11.02;7.68;;;;;;;;;;5052946;28;20032;-53
2024/01/19 13:36:13;;;;;;;11.18;6.95;;;;;;;;;;5052563;28;20045;-51
2024/01/19 13:38:40;;;;;;;10.52;6.05;;;;;;;;;;5052489;28;20071;-52
2024/01/19 13:41:07;;;;;;;11.48;6.90;;;;;;;;;;5051027;28;20029;-53
2024/01/19 13:43:34;;;;;;;10.77;6.35;;;;;;;;;;5052167;28;20448;-50
2024/01/19 13:46:00;;;;;;;13.25;8.50;;;;;;;;;;5051803;28;20025;-56
2024/01/19 13:48:26;;;;;;;10.20;6.00;;;;;;;;;;5051489;28;20023;-49
2024/01/19 13:50:52;;;;;;;13.02;9.30;;;;;;;;;;5052069;28;20522;-51
2024/01/19 13:53:19;;;;;;;11.45;7.60;;;;;;;;;;5051225;28;20056;-55
2024/01/19 13:55:45;;;;;;;11.32;6.38;;;;;;;;;;5052017;28;20559;-54
2024/01/19 13:58:11;;;;;;;14.80;9.05;;;;;;;;;;5051900;28;20025;-52
2024/01/19 14:00:37;;;;;;;11.15;7.53;;;;;;;;;;5051172;28;20506;-51
2024/01/19 14:03:04;;;;;;;13.25;7.63;;;;;;;;;;5051529;28;20017;-51
2024/01/19 14:05:30;;;;;;;21.65;8.18;;;;;;;;;;5051897;28;20033;-50
2024/01/19 14:07:57;;;;;;;10.50;6.20;;;;;;;;;;5051571;28;20028;-51
2024/01/19 14:10:23;;;;;;;11.48;7.20;;;;;;;;;;5051664;28;20047;-50
2024/01/19 14:12:49;;;;;;;10.43;6.00;;;;;;;;;;5050733;28;20075;-50
2024/01/19 14:15:16;;;;;;;16.35;8.63;;;;;;;;;;5048305;28;20056;-54
2024/01/19 14:17:42;;;;;;;12.23;7.50;;;;;;;;;;5051299;28;20020;-52
2024/01/19 14:20:08;;;;;;;17.27;9.32;;;;;;;;;;5051360;28;20028;-50
2024/01/19 14:22:34;;;;;;;11.60;6.72;;;;;;;;;;5050609;28;20456;-52
2024/01/19 14:25:00;;;;;;;13.02;7.60;;;;;;;;;;5033330;28;20021;-56
2024/01/19 14:27:29;;;;;;;15.98;10.20;;;;;;;;;;5051281;28;20487;-54
2024/01/19 14:29:58;;;;;;;13.13;7.28;;;;;;;;;;5051139;28;20104;-49